Time;durP1;ratioP1;P1;durP2;ratioP2;P2;SDS_P1;SDS_P2;PMS_P1;PMS_P2;Temp;Humidity;BMP_temperature;BMP_pressure;BME280_temperature;BME280_humidity;BME280_pressure;Samples;Min_cycle;Max_cycle;Signal;HPM_P1;HPM_P2
2022/05/06 00:04:27;;;;;;;4.53;3.22;;;;;;;19.74;37.32;102473.66;16141519;19;130116;-53
2022/05/06 00:09:49;;;;;;;4.22;2.88;;;;;;;19.72;37.22;102469.34;16139742;19;129465;-52
2022/05/06 00:15:11;;;;;;;6.03;3.17;;;;;;;19.68;37.47;102474.50;16140326;19;129137;-51
2022/05/06 00:20:33;;;;;;;2.28;2.08;;;;;;;19.67;37.39;102473.66;16142732;19;129315;-49
2022/05/06 00:25:56;;;;;;;4.50;3.38;;;;;;;19.66;37.24;102471.06;16143592;19;132332;-54
2022/05/06 00:31:17;;;;;;;5.32;4.82;;;;;;;19.63;37.33;102468.75;16145329;19;129418;-50
2022/05/06 00:36:39;;;;;;;3.40;2.92;;;;;;;19.64;37.37;102479.63;16145635;19;130151;-51
2022/05/06 00:42:01;;;;;;;5.60;4.28;;;;;;;19.63;37.39;102472.38;16141606;19;129227;-53
2022/05/06 00:47:23;;;;;;;5.25;4.10;;;;;;;19.61;37.14;102468.94;16144568;19;130041;-49
2022/05/06 00:52:44;;;;;;;5.03;3.20;;;;;;;19.61;37.38;102468.13;16144860;19;129526;-50
2022/05/06 00:58:07;;;;;;;4.20;3.80;;;;;;;19.60;37.40;102471.94;16142462;19;130489;-49
2022/05/06 01:03:29;;;;;;;5.70;4.43;;;;;;;19.59;37.32;102471.09;16139642;19;129472;-52
2022/05/06 01:08:52;;;;;;;5.88;4.63;;;;;;;19.58;37.34;102469.38;16140154;19;129367;-51
2022/05/06 01:14:30;;;;;;;4.85;4.35;;;;;;;19.57;36.95;102467.66;16140028;19;129022;-51
2022/05/06 01:19:52;;;;;;;5.68;4.60;;;;;;;19.55;37.14;102466.19;16143623;19;129921;-53
2022/05/06 01:25:15;;;;;;;5.82;4.85;;;;;;;19.53;36.80;102461.69;16137271;19;129495;-50
2022/05/06 01:30:47;;;;;;;5.57;4.32;;;;;;;19.53;37.10;102460.84;16139632;19;129149;-49
2022/05/06 01:36:10;;;;;;;5.90;5.10;;;;;;;19.52;36.81;102467.47;16141986;19;129491;-49
2022/05/06 01:41:35;;;;;;;5.20;3.95;;;;;;;19.50;37.03;102462.16;16130621;19;130023;-51
2022/05/06 01:47:00;;;;;;;5.23;4.70;;;;;;;19.50;37.08;102469.59;16140078;19;129412;-51
2022/05/06 01:52:24;;;;;;;4.57;4.10;;;;;;;19.49;36.90;102470.66;16147281;19;129192;-54
2022/05/06 01:57:46;;;;;;;5.40;4.43;;;;;;;19.49;37.09;102470.66;16136437;19;129432;-54
2022/05/06 02:05:16;;;;;;;5.28;4.20;;;;;;;19.46;36.90;102476.66;16131871;19;129447;-48
2022/05/06 02:08:50;;;;;;;5.10;4.28;;;;;;;19.46;36.99;102474.72;16134899;19;130192;-53
2022/05/06 02:14:12;;;;;;;5.22;4.30;;;;;;;19.45;37.22;102470.25;16135084;19;129408;-52
2022/05/06 02:19:36;;;;;;;4.77;4.17;;;;;;;19.45;36.94;102470.25;16130066;19;129125;-54
2022/05/06 02:24:58;;;;;;;5.45;4.57;;;;;;;19.46;36.91;102468.31;16128239;19;129454;-51
2022/05/06 02:36:01;;;;;;;4.88;4.18;;;;;;;19.41;37.03;102474.50;16135745;19;129079;-51
2022/05/06 02:41:22;;;;;;;5.07;4.25;;;;;;;19.41;36.77;102474.50;16133957;19;128860;-54
2022/05/06 02:46:44;;;;;;;4.63;3.95;;;;;;;19.40;37.18;102477.50;16136461;19;129764;-52
2022/05/06 02:52:09;;;;;;;4.75;3.83;;;;;;;19.41;36.87;102479.22;16131811;19;128932;-52
2022/05/06 02:57:30;;;;;;;5.50;4.43;;;;;;;19.40;36.72;102483.06;16132944;19;129437;-54
2022/05/06 03:02:52;;;;;;;5.15;4.60;;;;;;;19.38;36.79;102483.28;16132144;19;130029;-55
2022/05/06 03:08:14;;;;;;;4.97;4.05;;;;;;;19.37;37.15;102476.88;16144244;19;132134;-51
2022/05/06 03:13:36;;;;;;;5.53;4.90;;;;;;;19.36;36.68;102483.47;16146023;19;129439;-54
2022/05/06 03:19:00;;;;;;;5.40;4.47;;;;;;;19.37;36.67;102476.88;16148949;19;129344;-50
2022/05/06 03:24:22;;;;;;;5.22;4.22;;;;;;;19.34;36.88;102468.97;16145752;19;130037;-54
2022/05/06 03:29:44;;;;;;;6.13;4.47;;;;;;;19.33;37.14;102471.97;16148393;19;129635;-51
2022/05/06 03:35:07;;;;;;;5.05;4.30;;;;;;;19.33;36.74;102477.50;16147817;19;129864;-53
2022/05/06 03:40:29;;;;;;;5.88;4.70;;;;;;;19.34;36.72;102484.78;16148435;19;129825;-56
2022/05/06 03:45:50;;;;;;;4.90;4.07;;;;;;;19.32;37.06;102481.34;16141769;19;129284;-54
2022/05/06 03:51:21;;;;;;;4.38;3.88;;;;;;;19.31;36.86;102488.84;16147426;19;129302;-51
2022/05/06 03:56:43;;;;;;;3.50;3.20;;;;;;;19.31;37.11;102486.06;16147302;19;129029;-55
2022/05/06 04:02:05;;;;;;;6.35;3.67;;;;;;;19.30;36.97;102489.91;16140295;19;128968;-53
2022/05/06 04:07:26;;;;;;;3.42;3.08;;;;;;;19.30;37.09;102487.13;16146678;19;129435;-54
2022/05/06 04:12:49;;;;;;;4.18;3.70;;;;;;;19.29;36.65;102488.19;16141706;19;129033;-55
2022/05/06 04:18:11;;;;;;;3.47;2.92;;;;;;;19.29;36.84;102488.19;16144777;19;129418;-55
2022/05/06 04:23:34;;;;;;;3.78;3.30;;;;;;;19.27;36.87;102487.53;16142208;19;129043;-54
2022/05/06 04:28:56;;;;;;;4.18;3.45;;;;;;;19.26;36.65;102496.94;16144077;19;129638;-52
2022/05/06 04:34:18;;;;;;;4.18;3.40;;;;;;;19.24;36.93;102496.28;16145415;19;129197;-54
2022/05/06 04:39:39;;;;;;;3.47;2.80;;;;;;;19.26;36.60;102505.25;16145539;19;129804;-51
2022/05/06 04:45:01;;;;;;;3.35;2.88;;;;;;;19.25;36.97;102497.16;16139651;19;129381;-54
2022/05/06 04:50:23;;;;;;;2.97;2.67;;;;;;;19.25;37.01;102497.16;16145772;19;130048;-55
2022/05/06 04:55:46;;;;;;;2.15;1.95;;;;;;;19.25;36.80;102502.72;16137478;19;130276;-54
2022/05/06 05:01:08;;;;;;;1.90;1.77;;;;;;;19.24;36.55;102506.53;16142050;19;129748;-52
2022/05/06 05:06:31;;;;;;;1.85;1.67;;;;;;;19.24;36.83;102512.94;16142610;19;130001;-51
2022/05/06 05:11:54;;;;;;;2.55;1.40;;;;;;;19.39;36.69;102509.94;16136763;19;130239;-53
2022/05/06 05:17:15;;;;;;;2.45;1.70;;;;;;;19.62;36.50;102519.78;16141806;19;129350;-48
2022/05/06 05:22:43;;;;;;;7.82;1.90;;;;;;;19.86;36.06;102528.53;16139136;19;129363;-53
2022/05/06 05:28:05;;;;;;;2.45;1.90;;;;;;;20.08;35.84;102531.91;16140911;19;130504;-53
2022/05/06 05:33:28;;;;;;;5.25;2.00;;;;;;;20.31;35.95;102533.38;16142947;19;129255;-50
2022/05/06 05:38:50;;;;;;;5.90;2.42;;;;;;;20.45;35.84;102529.44;16141050;19;129562;-55
2022/05/06 05:49:51;;;;;;;2.78;1.73;;;;;;;20.53;35.73;102540.34;16141155;19;130391;-52
2022/05/06 05:55:15;;;;;;;2.33;1.63;;;;;;;20.48;35.28;102536.53;16138217;19;129913;-51
2022/05/06 06:00:37;;;;;;;2.70;1.60;;;;;;;20.40;35.54;102540.41;16138575;19;129547;-50
2022/05/06 06:05:58;;;;;;;3.15;1.83;;;;;;;20.33;36.00;102542.31;16133813;19;130358;-49
2022/05/06 06:11:20;;;;;;;2.00;1.80;;;;;;;20.24;35.67;102539.78;16135152;19;129550;-53
2022/05/06 06:16:43;;;;;;;3.50;1.83;;;;;;;20.20;35.63;102530.19;16132502;19;129716;-54
2022/05/06 06:22:05;;;;;;;5.15;1.90;;;;;;;20.13;36.01;102529.34;16137586;19;129441;-54
2022/05/06 06:27:28;;;;;;;2.83;1.63;;;;;;;20.04;36.19;102528.72;16137421;19;130159;-51
2022/05/06 06:32:53;;;;;;;2.13;1.70;;;;;;;19.98;36.20;102535.13;16134078;19;129760;-51
2022/05/06 06:38:15;;;;;;;2.00;1.80;;;;;;;19.92;36.23;102539.63;16139664;19;129837;-51
2022/05/06 06:43:36;;;;;;;3.95;1.70;;;;;;;19.88;36.08;102546.66;16148657;19;129126;-52
2022/05/06 06:48:58;;;;;;;1.83;1.50;;;;;;;19.84;36.61;102567.59;16151151;19;129364;-52
2022/05/06 06:54:20;;;;;;;1.67;1.30;;;;;;;19.79;36.48;102564.63;16150761;19;129819;-53
2022/05/06 06:59:41;;;;;;;1.52;1.40;;;;;;;19.78;36.45;102566.53;16150223;19;130514;-53
2022/05/06 07:05:03;;;;;;;1.52;1.42;;;;;;;19.83;36.18;102565.91;16146221;19;129259;-53
2022/05/06 07:16:27;;;;;;;1.38;1.20;;;;;;;20.21;36.05;102573.56;16146862;19;129795;-53
2022/05/06 07:21:49;;;;;;;1.67;1.10;;;;;;;20.47;35.62;102588.47;16150031;19;128892;-53
2022/05/06 07:27:11;;;;;;;1.67;1.40;;;;;;;20.67;35.47;102588.41;16150475;19;129376;-54
2022/05/06 07:32:33;;;;;;;1.95;1.25;;;;;;;20.84;35.46;102590.72;16149112;19;129365;-54
2022/05/06 07:37:55;;;;;;;1.90;1.30;;;;;;;20.98;34.87;102592.38;16148533;19;129107;-49
2022/05/06 07:43:16;;;;;;;2.55;1.60;;;;;;;21.09;34.73;102599.16;16147113;19;129945;-52
2022/05/06 07:48:38;;;;;;;3.30;1.95;;;;;;;21.20;34.86;102604.00;16145399;19;129771;-53
2022/05/06 07:54:00;;;;;;;2.53;2.08;;;;;;;21.28;34.72;102599.28;16146379;19;129184;-53
2022/05/06 07:59:22;;;;;;;2.42;1.92;;;;;;;21.36;34.58;102594.28;16145985;19;129308;-55
2022/05/06 08:04:48;;;;;;;2.35;2.03;;;;;;;21.44;34.79;102593.16;16143153;19;129287;-53
2022/05/06 08:10:10;;;;;;;2.80;2.30;;;;;;;21.49;34.57;102600.84;16144516;19;129004;-53
2022/05/06 08:15:32;;;;;;;2.85;2.55;;;;;;;21.55;34.29;102594.41;16141610;19;129688;-51
2022/05/06 08:20:54;;;;;;;3.13;2.55;;;;;;;21.61;34.25;102596.25;16147515;19;129284;-53
2022/05/06 08:26:16;;;;;;;2.70;1.88;;;;;;;21.66;34.00;102588.09;16142157;19;129564;-54
2022/05/06 08:31:37;;;;;;;3.50;2.50;;;;;;;21.71;34.27;102575.44;16145653;19;129095;-55
2022/05/06 08:36:59;;;;;;;3.17;2.50;;;;;;;21.75;34.22;102577.53;16145480;19;129889;-49
2022/05/06 08:42:22;;;;;;;2.75;2.22;;;;;;;21.81;33.90;102581.34;16143819;19;129573;-55
2022/05/06 08:53:28;;;;;;;3.85;2.42;;;;;;;21.81;34.27;102571.03;16144128;19;131135;-53
2022/05/06 08:58:50;;;;;;;3.38;2.00;;;;;;;21.81;34.19;102568.25;16143572;19;129351;-53
2022/05/06 09:04:12;;;;;;;2.22;1.92;;;;;;;21.80;34.01;102574.91;16139919;19;129635;-55
2022/05/06 09:09:34;;;;;;;2.55;2.08;;;;;;;21.80;33.95;102568.47;16140854;19;129071;-52
2022/05/06 09:20:43;;;;;;;3.17;2.15;;;;;;;21.74;34.05;102561.91;16141848;19;129622;-54
2022/05/06 09:26:16;;;;;;;3.15;2.45;;;;;;;21.76;34.09;102553.28;16134954;19;129261;-55
2022/05/06 09:31:39;;;;;;;2.95;2.03;;;;;;;21.77;34.09;102555.88;16141825;19;128836;-52
2022/05/06 09:37:01;;;;;;;3.42;2.08;;;;;;;21.78;34.57;102546.44;16140994;19;132093;-55
2022/05/06 09:42:24;;;;;;;2.47;1.95;;;;;;;21.81;34.60;102547.91;16140508;19;129722;-52
2022/05/06 09:47:57;;;;;;;3.97;2.45;;;;;;;21.82;34.27;102544.88;16139036;19;129136;-49
2022/05/06 09:53:21;;;;;;;3.35;2.25;;;;;;;21.82;34.32;102549.63;16139619;19;129044;-53
2022/05/06 09:58:43;;;;;;;3.83;2.70;;;;;;;21.81;34.29;102543.16;16140016;19;128945;-55
2022/05/06 10:04:05;;;;;;;4.35;2.67;;;;;;;21.81;34.75;102542.34;16137470;19;128992;-56
2022/05/06 10:09:31;;;;;;;4.50;3.30;;;;;;;21.87;34.70;102544.19;16137765;19;129502;-54
2022/05/06 10:14:54;;;;;;;5.28;3.45;;;;;;;21.90;34.49;102545.69;16135731;19;128971;-51
2022/05/06 10:20:34;;;;;;;6.35;4.03;;;;;;;21.92;34.41;102527.66;16140856;19;129457;-51
2022/05/06 10:25:57;;;;;;;16.15;9.25;;;;;;;21.88;35.05;102539.47;16135240;19;129550;-51
2022/05/06 10:37:14;;;;;;;14.02;7.57;;;;;;;21.81;35.41;102523.66;16136458;19;129407;-54
2022/05/06 10:42:36;;;;;;;14.63;9.15;;;;;;;21.75;35.24;102516.25;16136904;19;129488;-53
2022/05/06 10:47:58;;;;;;;14.27;8.50;;;;;;;21.70;35.55;102518.00;16135313;19;129569;-55
2022/05/06 10:53:40;;;;;;;29.67;10.23;;;;;;;21.65;35.62;102524.28;16136199;19;129476;-53
2022/05/06 10:59:02;;;;;;;23.23;15.38;;;;;;;21.59;35.35;102509.34;16134841;19;128932;-56
2022/05/06 11:04:24;;;;;;;38.25;24.67;;;;;;;21.49;35.58;102507.06;16134315;19;129074;-53
2022/05/06 11:09:46;;;;;;;37.58;23.58;;;;;;;21.42;35.48;102500.63;16135012;19;129628;-53
2022/05/06 11:15:14;;;;;;;47.60;29.67;;;;;;;21.37;36.14;102503.28;16132946;19;130322;-54
2022/05/06 11:20:38;;;;;;;39.03;24.85;;;;;;;21.28;36.32;102488.78;16135792;19;129521;-53
2022/05/06 11:26:00;;;;;;;38.88;24.05;;;;;;;21.21;36.60;102485.19;16137153;19;129220;-54
2022/05/06 11:31:21;;;;;;;34.60;20.30;;;;;;;21.21;36.61;102483.25;16150025;19;129874;-53
2022/05/06 11:36:47;;;;;;;32.85;19.90;;;;;;;21.24;36.66;102475.53;16150066;19;129437;-53
2022/05/06 11:42:23;;;;;;;28.08;17.55;;;;;;;21.27;36.44;102475.09;16149479;19;129497;-55
2022/05/06 11:47:45;;;;;;;28.80;16.45;;;;;;;21.25;36.54;102471.69;16143614;19;129446;-50
2022/05/06 11:53:12;;;;;;;25.50;14.65;;;;;;;21.28;36.46;102465.66;16148760;19;129109;-51
2022/05/06 11:58:35;;;;;;;22.77;14.65;;;;;;;21.30;36.62;102460.69;16147406;19;129406;-55
2022/05/06 12:04:01;;;;;;;22.33;13.93;;;;;;;21.29;36.44;102440.38;16141278;19;129218;-48
2022/05/06 12:09:28;;;;;;;18.88;12.95;;;;;;;21.29;36.38;102437.59;16144485;19;132733;-56
2022/05/06 12:14:50;;;;;;;18.13;11.52;;;;;;;21.30;36.37;102449.56;16140943;19;130601;-53
2022/05/06 12:20:37;;;;;;;19.60;12.30;;;;;;;21.33;36.29;102446.34;16145945;19;129354;-53
2022/05/06 12:25:59;;;;;;;17.98;11.73;;;;;;;21.30;36.64;102446.78;16141491;19;129505;-50
2022/05/06 12:31:33;;;;;;;22.90;11.43;;;;;;;21.30;36.58;102444.00;16144752;19;129219;-55
2022/05/06 12:37:09;;;;;;;16.65;10.80;;;;;;;21.30;36.65;102432.84;16144706;19;129383;-56
2022/05/06 12:42:30;;;;;;;;;;;;;;;21.26;36.56;102439.97;16140805;19;129277;-54
2022/05/06 12:53:53;;;;;;;16.40;9.73;;;;;;;21.20;36.49;102430.63;16143021;19;130571;-52
2022/05/06 12:59:16;;;;;;;16.38;10.00;;;;;;;21.18;36.55;102425.25;16142270;19;129856;-49
2022/05/06 13:04:38;;;;;;;15.82;10.45;;;;;;;21.21;36.56;102418.41;16139096;19;129082;-52
2022/05/06 13:10:06;;;;;;;16.42;10.27;;;;;;;21.17;37.06;102417.97;16138047;19;130853;-49
2022/05/06 13:15:28;;;;;;;15.95;10.55;;;;;;;21.15;36.91;102416.50;16138346;19;129880;-53
2022/05/06 13:20:50;;;;;;;17.92;10.60;;;;;;;21.15;36.62;102422.94;16137700;19;129372;-49
2022/05/06 13:26:13;;;;;;;14.93;10.52;;;;;;;21.17;36.88;102409.63;16137583;19;129544;-51
2022/05/06 13:31:34;;;;;;;18.60;10.50;;;;;;;21.16;36.65;102407.97;16139394;19;129595;-52
2022/05/06 13:36:56;;;;;;;16.25;9.70;;;;;;;21.16;36.80;102402.41;16140588;19;130593;-51
2022/05/06 13:42:18;;;;;;;19.58;10.82;;;;;;;21.16;36.89;102391.25;16136304;19;129986;-52
2022/05/06 13:47:40;;;;;;;16.15;9.20;;;;;;;21.15;36.70;102395.13;16132752;19;130526;-53
2022/05/06 13:53:02;;;;;;;14.88;9.48;;;;;;;21.15;36.96;102389.56;16138571;19;129615;-50
2022/05/06 14:04:04;;;;;;;15.00;9.10;;;;;;;21.17;37.11;102381.81;16136673;19;129025;-53
2022/05/06 14:09:26;;;;;;;15.25;9.48;;;;;;;21.16;36.88;102374.56;16137151;19;129614;-52
2022/05/06 14:14:48;;;;;;;14.48;8.35;;;;;;;21.16;37.05;102369.00;16134159;19;130214;-49
2022/05/06 14:20:11;;;;;;;14.70;9.15;;;;;;;21.19;36.71;102373.25;16137680;19;129553;-53
2022/05/06 14:25:32;;;;;;;12.70;7.90;;;;;;;21.21;36.86;102374.72;16135500;19;131657;-52
2022/05/06 14:30:54;;;;;;;12.38;8.23;;;;;;;21.17;37.09;102359.53;16136341;19;129375;-53
2022/05/06 14:36:19;;;;;;;10.40;7.80;;;;;;;21.14;36.73;102359.16;16134538;19;129312;-49
2022/05/06 14:41:42;;;;;;;12.85;8.63;;;;;;;21.09;36.67;102359.00;16136284;19;128835;-53
2022/05/06 14:47:05;;;;;;;14.02;8.27;;;;;;;21.09;36.82;102357.06;16132537;19;128929;-52
2022/05/06 14:52:27;;;;;;;13.27;8.90;;;;;;;21.09;36.76;102345.94;16135680;19;129724;-49
2022/05/06 14:57:49;;;;;;;11.65;7.88;;;;;;;21.10;37.21;102333.72;16134996;19;129196;-53
2022/05/06 15:03:10;;;;;;;13.80;7.57;;;;;;;21.10;36.79;102324.53;16146589;19;130197;-51
2022/05/06 15:08:32;;;;;;;12.32;7.78;;;;;;;21.11;36.83;102307.59;16142342;19;129254;-53
2022/05/06 15:13:54;;;;;;;13.18;8.27;;;;;;;21.05;37.21;102319.63;16140631;19;130379;-53
2022/05/06 15:19:24;;;;;;;13.98;8.65;;;;;;;21.04;36.95;102320.75;16141312;19;129372;-52
2022/05/06 15:24:47;;;;;;;13.50;8.50;;;;;;;21.01;37.06;102315.63;16145097;19;129446;-48
2022/05/06 15:30:09;;;;;;;13.73;7.70;;;;;;;20.99;37.05;102310.28;16145525;19;130295;-48
2022/05/06 15:35:30;;;;;;;11.27;7.28;;;;;;;20.99;37.14;102307.50;16144987;19;130488;-54
2022/05/06 15:40:54;;;;;;;15.45;7.72;;;;;;;21.02;37.17;102308.97;16146443;19;129423;-51
2022/05/06 15:46:16;;;;;;;15.25;8.15;;;;;;;21.02;36.81;102312.59;16141946;19;129157;-49
2022/05/06 15:51:38;;;;;;;13.32;7.93;;;;;;;21.02;36.70;102318.16;16146502;19;129126;-50
2022/05/06 15:57:00;;;;;;;14.63;6.93;;;;;;;21.03;36.89;102307.91;16143464;19;129276;-53
2022/05/06 16:02:21;;;;;;;12.38;7.35;;;;;;;21.03;36.98;102296.78;16142797;19;130385;-53
2022/05/06 16:07:46;;;;;;;11.35;8.00;;;;;;;21.05;36.78;102300.16;16141632;19;129314;-54
2022/05/06 16:13:08;;;;;;;11.70;7.07;;;;;;;21.06;36.91;102297.16;16137175;19;131508;-53
2022/05/06 16:18:30;;;;;;;9.48;6.47;;;;;;;21.09;36.86;102295.00;16140157;19;130224;-54
2022/05/06 16:23:53;;;;;;;12.13;6.18;;;;;;;21.08;36.69;102293.31;16140948;19;130246;-53
2022/05/06 16:29:14;;;;;;;11.27;6.57;;;;;;;21.03;36.76;102285.66;16139808;19;131540;-54
2022/05/06 16:40:17;;;;;;;16.17;6.75;;;;;;;20.98;37.63;102277.13;16142161;19;129446;-51
2022/05/06 16:45:39;;;;;;;16.95;6.95;;;;;;;20.97;37.56;102278.22;16132838;19;130084;-53
2022/05/06 16:51:01;;;;;;;12.88;6.85;;;;;;;20.90;37.27;102273.56;16141061;19;130155;-54
2022/05/06 16:56:23;;;;;;;15.75;6.30;;;;;;;20.89;37.20;102268.22;16139638;19;130339;-54
2022/05/06 17:01:44;;;;;;;17.13;6.60;;;;;;;20.86;37.29;102261.19;16141528;19;130220;-53
2022/05/06 17:07:06;;;;;;;14.07;6.40;;;;;;;20.86;37.84;102277.03;16139365;19;129396;-55
2022/05/06 17:12:29;;;;;;;21.42;7.30;;;;;;;20.85;37.60;102278.97;16133915;19;131310;-51
2022/05/06 17:17:51;;;;;;;20.30;6.68;;;;;;;20.85;37.78;102273.41;16140463;19;129874;-54
2022/05/06 17:23:12;;;;;;;11.77;6.53;;;;;;;20.85;37.58;102276.19;16136854;19;129558;-52
2022/05/06 17:28:34;;;;;;;13.23;5.35;;;;;;;20.84;37.32;102270.84;16136460;19;129278;-53
2022/05/06 17:33:56;;;;;;;14.60;5.72;;;;;;;20.84;37.44;102266.13;16138751;19;129281;-50
2022/05/06 17:39:18;;;;;;;14.18;6.38;;;;;;;20.82;37.64;102273.00;16138970;19;129678;-52
2022/05/06 17:44:40;;;;;;;10.27;5.45;;;;;;;20.80;37.81;102266.81;16134920;19;130339;-52
2022/05/06 17:50:02;;;;;;;13.57;5.60;;;;;;;20.75;37.96;102270.25;16134286;19;129182;-56
2022/05/06 17:55:24;;;;;;;13.40;5.97;;;;;;;20.74;37.70;102271.34;16137390;19;129265;-55
2022/05/06 18:06:29;;;;;;;19.63;7.93;;;;;;;20.70;38.17;102270.06;16134910;19;130487;-55
2022/05/06 18:11:51;;;;;;;15.40;6.85;;;;;;;20.65;38.81;102267.97;16132514;19;129361;-54
2022/05/06 18:17:14;;;;;;;19.27;7.13;;;;;;;20.63;39.11;102269.31;16129917;19;129413;-54
2022/05/06 18:22:36;;;;;;;18.00;6.97;;;;;;;20.59;39.27;102263.34;16136805;19;129781;-55
2022/05/06 18:27:59;;;;;;;15.63;6.25;;;;;;;20.57;39.48;102260.78;16131158;19;129598;-53
2022/05/06 18:33:21;;;;;;;16.20;5.88;;;;;;;20.54;39.71;102269.59;16131532;19;129451;-54
2022/05/06 18:38:42;;;;;;;16.90;5.80;;;;;;;20.53;39.87;102270.66;16148935;19;129802;-51
2022/05/06 18:44:04;;;;;;;10.57;5.50;;;;;;;20.50;39.85;102273.88;16148385;19;129235;-53
2022/05/06 18:49:27;;;;;;;12.88;5.63;;;;;;;20.48;40.50;102266.88;16144990;19;129595;-55
2022/05/06 18:54:49;;;;;;;11.85;4.95;;;;;;;20.45;40.23;102266.22;16149500;19;129525;-54
2022/05/06 19:00:12;;;;;;;14.10;4.78;;;;;;;20.42;40.80;102268.63;16148212;19;129381;-55
2022/05/06 19:05:34;;;;;;;11.13;5.05;;;;;;;20.39;41.14;102280.19;16147901;19;129440;-52
2022/05/06 19:10:56;;;;;;;17.98;7.45;;;;;;;20.39;40.82;102280.19;16146098;19;129372;-53
2022/05/06 19:16:18;;;;;;;15.75;6.50;;;;;;;20.39;40.71;102288.53;16143869;19;131490;-55
2022/05/06 19:27:26;;;;;;;14.88;5.88;;;;;;;20.36;41.19;102292.63;16144480;19;129709;-53
2022/05/06 19:32:48;;;;;;;14.02;5.78;;;;;;;20.33;41.71;102294.97;16146382;19;129907;-51
2022/05/06 19:38:10;;;;;;;10.43;4.95;;;;;;;20.34;41.51;102293.88;16147178;19;130335;-51
2022/05/06 19:43:31;;;;;;;16.27;5.40;;;;;;;20.33;41.49;102298.63;16145267;19;131980;-51
2022/05/06 19:48:54;;;;;;;9.10;4.50;;;;;;;20.32;41.28;102293.25;16140001;19;129210;-54
2022/05/06 19:54:18;;;;;;;10.00;4.75;;;;;;;20.31;41.83;102295.19;16146616;19;130076;-52
2022/05/06 19:59:40;;;;;;;13.55;4.65;;;;;;;20.27;41.71;102294.81;16140351;19;130723;-53
2022/05/06 20:05:02;;;;;;;16.23;6.25;;;;;;;20.26;42.41;102281.97;16139551;19;129074;-51
2022/05/06 20:10:24;;;;;;;25.75;4.80;;;;;;;20.29;42.97;102292.66;16140211;19;130153;-45
2022/05/06 20:15:45;;;;;;;20.98;5.03;;;;;;;20.29;42.87;102289.88;16139578;19;130018;-53
2022/05/06 20:21:07;;;;;;;11.25;4.35;;;;;;;20.32;42.67;102288.56;16142929;19;130032;-52
2022/05/06 20:26:29;;;;;;;19.20;5.40;;;;;;;20.37;43.23;102282.34;16139918;19;129529;-52
2022/05/06 20:31:51;;;;;;;20.15;4.53;;;;;;;20.41;43.16;102289.16;16143595;19;130961;-53
2022/05/06 20:37:16;;;;;;;15.43;4.72;;;;;;;20.43;43.37;102287.84;16144220;19;129012;-52
2022/05/06 20:42:37;;;;;;;11.07;3.67;;;;;;;20.45;43.17;102294.03;16138019;19;129348;-53
2022/05/06 20:47:59;;;;;;;10.27;3.90;;;;;;;20.45;43.29;102291.25;16136120;19;130028;-51
2022/05/06 20:53:25;;;;;;;10.07;3.38;;;;;;;20.45;43.18;102291.25;16141197;19;129241;-53
2022/05/06 21:04:27;;;;;;;10.07;3.35;;;;;;;20.47;43.42;102287.41;16141622;19;129738;-55
2022/05/06 21:15:30;;;;;;;7.78;2.50;;;;;;;20.47;43.72;102288.22;16137846;19;130643;-52
2022/05/06 21:20:52;;;;;;;9.55;3.00;;;;;;;20.47;43.34;102298.53;16141055;19;129325;-52
2022/05/06 21:26:15;;;;;;;7.50;3.65;;;;;;;20.47;42.92;102299.34;16139777;19;128953;-51
2022/05/06 21:31:36;;;;;;;21.30;3.97;;;;;;;20.44;43.48;102291.47;16140160;19;131970;-52
2022/05/06 21:36:58;;;;;;;11.13;2.47;;;;;;;20.44;43.55;102288.69;16134208;19;129514;-54
2022/05/06 21:42:20;;;;;;;20.98;3.33;;;;;;;20.43;43.31;102292.56;16129911;19;130323;-54
2022/05/06 21:47:42;;;;;;;5.32;2.63;;;;;;;20.44;43.80;102288.69;16125193;19;130342;-51
2022/05/06 21:53:05;;;;;;;9.32;3.08;;;;;;;20.43;43.51;102285.06;16128250;19;130031;-54
2022/05/06 21:58:27;;;;;;;6.70;2.15;;;;;;;20.44;44.89;102277.56;16135523;19;131479;-51
2022/05/06 22:03:49;;;;;;;14.93;3.47;;;;;;;20.40;44.12;102284.66;16136699;19;130119;-55
2022/05/06 22:09:11;;;;;;;8.50;2.85;;;;;;;20.39;44.28;102282.97;16132912;19;129726;-55
2022/05/06 22:14:33;;;;;;;11.00;3.05;;;;;;;20.37;44.20;102279.56;16133215;19;129755;-54
2022/05/06 22:19:55;;;;;;;5.85;2.50;;;;;;;20.36;44.12;102286.19;16136661;19;128965;-54
2022/05/06 22:25:17;;;;;;;4.20;2.45;;;;;;;20.32;44.43;102282.16;16135169;19;129520;-54
2022/05/06 22:30:39;;;;;;;10.27;2.40;;;;;;;20.29;44.31;102281.53;16128186;19;130453;-54
2022/05/06 22:36:01;;;;;;;4.43;2.22;;;;;;;20.27;44.50;102283.69;16135313;19;129169;-54
2022/05/06 22:47:03;;;;;;;4.78;2.75;;;;;;;20.23;44.29;102276.03;16133085;19;129036;-54
2022/05/06 22:52:24;;;;;;;7.45;2.42;;;;;;;20.21;44.37;102267.06;16134848;19;129326;-54
2022/05/06 22:57:46;;;;;;;6.45;2.30;;;;;;;20.20;44.51;102268.97;16133546;19;129148;-52
2022/05/06 23:03:11;;;;;;;5.30;2.70;;;;;;;20.18;44.63;102268.38;16134108;19;129093;-52
2022/05/06 23:08:32;;;;;;;5.65;2.67;;;;;;;20.16;44.63;102267.75;16129176;19;130299;-54
2022/05/06 23:13:55;;;;;;;5.15;2.20;;;;;;;20.16;44.62;102258.53;16127602;19;129850;-53
2022/05/06 23:19:16;;;;;;;5.13;2.60;;;;;;;20.14;44.59;102258.78;16132785;19;129095;-52
2022/05/06 23:24:38;;;;;;;5.80;2.45;;;;;;;20.13;44.90;102257.06;16147824;19;129379;-52
2022/05/06 23:30:00;;;;;;;4.80;2.65;;;;;;;20.11;44.94;102257.31;16144561;19;129692;-55
2022/05/06 23:35:22;;;;;;;6.05;2.38;;;;;;;20.10;45.01;102255.59;16144216;19;130476;-51
2022/05/06 23:40:44;;;;;;;3.35;2.30;;;;;;;20.10;45.33;102263.94;16141585;19;129408;-55
2022/05/06 23:46:06;;;;;;;4.18;2.08;;;;;;;20.10;45.22;102251.94;16145949;19;129357;-55
2022/05/06 23:51:28;;;;;;;10.23;2.47;;;;;;;20.07;45.05;102252.38;16146274;19;129043;-54
2022/05/06 23:56:49;;;;;;;2.15;1.80;;;;;;;20.06;45.19;102251.56;16146881;19;128949;-50
